Time;durP1;ratioP1;P1;durP2;ratioP2;P2;SDS_P1;SDS_P2;PMS_P1;PMS_P2;Temp;Humidity;BMP_temperature;BMP_pressure;BME280_temperature;BME280_humidity;BME280_pressure;Samples;Min_cycle;Max_cycle;Signal;HPM_P1;HPM_P2
2022/03/09 00:01:51;;;;;;;20.98;15.00;;;7.80;99.90;;;;;;5100642;28;20016;-76
2022/03/09 00:04:17;;;;;;;22.88;15.32;;;7.80;99.90;;;;;;5099002;28;20024;-77
2022/03/09 00:06:43;;;;;;;18.95;14.45;;;7.70;99.90;;;;;;5100714;28;20028;-75
2022/03/09 00:09:10;;;;;;;16.85;13.00;;;7.70;99.90;;;;;;5099430;28;20020;-77
2022/03/09 00:11:36;;;;;;;20.05;14.40;;;7.70;99.90;;;;;;5098776;28;20051;-77
2022/03/09 00:14:03;;;;;;;15.20;11.95;;;7.70;99.90;;;;;;5098450;28;20028;-77
2022/03/09 00:16:28;;;;;;;14.55;10.60;;;7.70;99.90;;;;;;5100477;28;20013;-77
2022/03/09 00:18:55;;;;;;;17.80;12.65;;;7.70;99.90;;;;;;5098790;28;20039;-77
2022/03/09 00:21:21;;;;;;;12.93;10.60;;;7.60;99.90;;;;;;5099987;28;20099;-78
2022/03/09 00:23:46;;;;;;;14.43;10.77;;;7.60;99.90;;;;;;5099785;28;20117;-77
2022/03/09 00:26:13;;;;;;;13.10;9.85;;;7.60;99.90;;;;;;5100103;28;20024;-77
2022/03/09 00:28:39;;;;;;;12.60;10.40;;;7.60;99.90;;;;;;5097928;28;20118;-77
2022/03/09 00:31:05;;;;;;;13.18;10.00;;;7.60;99.90;;;;;;5098433;28;20047;-78
2022/03/09 00:33:31;;;;;;;10.77;9.57;;;7.60;99.90;;;;;;5097620;28;20116;-78
2022/03/09 00:35:57;;;;;;;8.68;6.68;;;7.70;99.90;;;;;;5099719;28;20034;-77
2022/03/09 00:38:23;;;;;;;9.38;7.10;;;7.70;99.90;;;;;;5099422;28;20039;-78
2022/03/09 00:40:50;;;;;;;11.73;7.78;;;7.60;99.90;;;;;;5099541;28;20028;-77
2022/03/09 00:43:17;;;;;;;8.40;7.30;;;7.60;99.90;;;;;;5099382;28;20023;-78
2022/03/09 00:45:43;;;;;;;10.68;7.95;;;7.60;99.90;;;;;;5098195;28;20031;-78
2022/03/09 00:48:09;;;;;;;10.35;8.85;;;7.60;99.90;;;;;;5099378;28;20075;-78
2022/03/09 00:50:35;;;;;;;12.30;9.27;;;7.60;99.90;;;;;;5099595;28;20020;-78
2022/03/09 00:53:01;;;;;;;10.52;9.40;;;7.60;99.90;;;;;;5099228;28;20030;-78
2022/03/09 00:55:27;;;;;;;8.82;7.47;;;7.60;99.90;;;;;;5098049;28;20102;-78
2022/03/09 00:57:52;;;;;;;10.98;8.63;;;7.60;99.90;;;;;;5097479;28;20032;-78
2022/03/09 01:00:18;;;;;;;11.60;7.63;;;7.60;99.90;;;;;;5099340;28;20032;-78
2022/03/09 01:02:45;;;;;;;9.18;7.35;;;7.60;99.90;;;;;;5098028;28;20081;-78
2022/03/09 01:05:12;;;;;;;9.45;7.20;;;7.60;99.90;;;;;;5099495;28;20021;-78
2022/03/09 01:07:38;;;;;;;13.00;8.77;;;7.60;99.90;;;;;;5099063;28;21411;-78
2022/03/09 01:10:06;;;;;;;11.02;8.93;;;7.60;99.90;;;;;;5097626;28;20024;-78
2022/03/09 01:12:32;;;;;;;12.73;9.25;;;7.60;99.90;;;;;;5098541;28;20024;-78
2022/03/09 01:14:58;;;;;;;12.52;9.63;;;7.60;99.90;;;;;;5091598;28;20032;-77
2022/03/09 01:17:24;;;;;;;12.25;9.38;;;7.60;99.90;;;;;;5095221;28;20145;-78
2022/03/09 01:19:50;;;;;;;10.82;8.00;;;7.60;99.90;;;;;;5097332;28;20047;-78
2022/03/09 01:22:16;;;;;;;10.52;7.88;;;7.60;99.90;;;;;;5097416;28;20020;-78
2022/03/09 01:24:41;;;;;;;9.43;7.80;;;7.60;99.90;;;;;;5098915;28;20020;-78
2022/03/09 01:27:07;;;;;;;17.95;11.23;;;7.60;99.90;;;;;;5096970;28;20027;-78
2022/03/09 01:29:35;;;;;;;22.70;13.30;;;7.60;99.90;;;;;;5097314;28;20052;-78
2022/03/09 01:32:00;;;;;;;26.40;13.73;;;7.60;99.90;;;;;;5097459;28;20028;-78
2022/03/09 01:34:26;;;;;;;11.73;9.02;;;7.60;99.90;;;;;;5097379;28;20099;-78
2022/03/09 01:36:52;;;;;;;11.02;9.13;;;7.50;99.90;;;;;;5097262;28;20530;-78
2022/03/09 01:39:20;;;;;;;16.98;10.52;;;7.50;99.90;;;;;;5097092;28;20085;-78
2022/03/09 01:41:46;;;;;;;12.77;10.13;;;7.50;99.90;;;;;;5097083;28;20077;-78
2022/03/09 01:44:14;;;;;;;14.45;11.32;;;7.50;99.90;;;;;;5098336;28;20016;-78
2022/03/09 01:46:41;;;;;;;16.05;11.52;;;7.50;99.90;;;;;;5098254;28;20084;-78
2022/03/09 01:49:09;;;;;;;16.52;12.13;;;7.40;99.90;;;;;;5097013;28;20038;-78
2022/03/09 01:51:38;;;;;;;12.10;10.65;;;7.40;99.90;;;;;;5098136;28;20076;-78
2022/03/09 01:54:05;;;;;;;15.77;9.90;;;7.40;99.90;;;;;;5098150;28;20488;-77
2022/03/09 01:56:31;;;;;;;14.32;10.73;;;7.30;99.90;;;;;;5097899;28;20031;-78
2022/03/09 01:58:57;;;;;;;15.45;11.32;;;7.30;99.90;;;;;;5097929;28;20028;-77
2022/03/09 02:01:23;;;;;;;14.35;11.10;;;7.20;99.90;;;;;;5097859;28;20504;-77
2022/03/09 02:03:49;;;;;;;15.05;11.73;;;7.20;99.90;;;;;;5096714;28;20054;-78
2022/03/09 02:06:15;;;;;;;11.98;10.50;;;7.20;99.90;;;;;;5097836;28;20062;-78
2022/03/09 02:11:28;;;;;;;19.10;12.68;;;7.10;99.90;;;;;;5098024;28;20081;-78
2022/03/09 02:13:54;;;;;;;16.88;13.70;;;7.10;99.90;;;;;;5097496;28;20077;-78
2022/03/09 02:16:20;;;;;;;19.17;13.90;;;7.10;99.90;;;;;;5097968;28;20024;-78
2022/03/09 02:18:46;;;;;;;24.35;17.45;;;7.10;99.90;;;;;;5097754;28;20035;-78
2022/03/09 02:21:16;;;;;;;24.65;17.45;;;7.10;99.90;;;;;;5097323;28;20024;-78
2022/03/09 02:23:43;;;;;;;25.53;17.23;;;7.10;99.90;;;;;;5097348;28;20614;-78
2022/03/09 02:26:08;;;;;;;21.70;16.30;;;7.00;99.90;;;;;;5096371;28;20311;-78
2022/03/09 02:28:39;;;;;;;22.75;16.52;;;7.00;99.90;;;;;;5095899;28;20083;-78
2022/03/09 02:31:05;;;;;;;22.00;16.08;;;6.90;99.90;;;;;;5096343;28;20028;-78
2022/03/09 02:33:31;;;;;;;24.48;16.20;;;6.80;99.90;;;;;;5097494;28;20031;-78
2022/03/09 02:35:57;;;;;;;20.77;15.38;;;6.80;99.90;;;;;;5095348;28;20453;-78
2022/03/09 02:38:23;;;;;;;18.95;13.32;;;6.70;99.90;;;;;;5097334;28;20504;-78
2022/03/09 02:40:50;;;;;;;19.60;13.70;;;6.70;99.90;;;;;;5097506;28;20040;-78
2022/03/09 02:43:16;;;;;;;18.75;12.07;;;6.60;99.90;;;;;;5096006;28;20024;-78
2022/03/09 02:45:42;;;;;;;14.10;11.88;;;6.60;99.90;;;;;;5097456;28;20052;-78
2022/03/09 02:48:07;;;;;;;14.57;11.18;;;6.50;99.90;;;;;;5096163;28;20499;-78
2022/03/09 02:50:33;;;;;;;15.68;12.02;;;6.50;99.90;;;;;;5097480;28;20020;-78
2022/03/09 02:52:59;;;;;;;16.33;11.35;;;6.40;99.90;;;;;;5097323;28;20449;-78
2022/03/09 02:55:25;;;;;;;16.10;11.85;;;6.40;99.90;;;;;;5096199;28;20024;-78
2022/03/09 02:57:51;;;;;;;13.48;11.38;;;6.30;99.90;;;;;;5097021;28;20028;-78
2022/03/09 03:00:16;;;;;;;13.85;10.57;;;6.30;99.90;;;;;;5097365;28;20046;-77
2022/03/09 03:02:42;;;;;;;14.75;10.52;;;6.20;99.90;;;;;;5097275;28;20024;-77
2022/03/09 03:05:09;;;;;;;14.90;10.50;;;6.20;99.90;;;;;;5096199;28;20024;-78
2022/03/09 03:07:36;;;;;;;14.65;11.10;;;6.20;99.90;;;;;;5097162;28;20438;-78
2022/03/09 03:10:03;;;;;;;14.07;10.52;;;6.20;99.90;;;;;;5097244;28;20028;-78
2022/03/09 03:12:29;;;;;;;12.70;10.40;;;6.20;99.90;;;;;;5096638;28;20031;-78
2022/03/09 03:14:55;;;;;;;16.42;10.90;;;6.20;99.90;;;;;;5097310;28;20062;-78
2022/03/09 03:17:21;;;;;;;14.88;11.60;;;6.10;99.90;;;;;;5097205;28;20028;-78
2022/03/09 03:19:47;;;;;;;17.13;11.07;;;6.10;99.90;;;;;;5095668;28;20046;-78
2022/03/09 03:22:13;;;;;;;18.55;12.27;;;6.10;99.90;;;;;;5097198;28;20027;-78
2022/03/09 03:24:39;;;;;;;21.45;13.05;;;6.20;99.90;;;;;;5097164;28;20016;-77
2022/03/09 03:27:04;;;;;;;19.35;12.30;;;6.20;99.90;;;;;;5096494;28;20028;-77
2022/03/09 03:29:30;;;;;;;19.27;12.50;;;6.20;99.90;;;;;;5095986;28;20431;-77
2022/03/09 03:31:56;;;;;;;20.67;13.63;;;6.20;99.90;;;;;;5097038;28;20020;-77
2022/03/09 03:34:22;;;;;;;17.30;12.85;;;6.20;99.90;;;;;;5100135;28;20313;-77
2022/03/09 03:36:48;;;;;;;21.67;11.98;;;6.10;99.90;;;;;;5099765;28;20028;-77
2022/03/09 03:39:14;;;;;;;15.98;11.55;;;6.00;99.90;;;;;;5100604;28;20032;-78
2022/03/09 03:41:40;;;;;;;15.65;11.00;;;6.00;99.90;;;;;;5099160;28;20043;-77
2022/03/09 03:44:06;;;;;;;18.05;12.15;;;5.90;99.90;;;;;;5078939;28;20103;-78
2022/03/09 03:46:33;;;;;;;16.30;12.57;;;5.90;99.90;;;;;;5097010;28;20043;-77
2022/03/09 03:48:59;;;;;;;15.73;11.75;;;5.90;99.90;;;;;;5099392;28;20023;-77
2022/03/09 03:51:25;;;;;;;19.52;12.55;;;5.90;99.90;;;;;;5100615;28;20028;-77
2022/03/09 03:53:51;;;;;;;13.15;11.05;;;5.90;99.90;;;;;;5100515;28;20538;-77
2022/03/09 03:56:17;;;;;;;13.75;10.75;;;5.80;99.90;;;;;;5099065;28;20035;-77
2022/03/09 03:58:43;;;;;;;13.95;10.65;;;5.70;99.90;;;;;;5100190;28;20423;-77
2022/03/09 04:01:09;;;;;;;18.33;11.18;;;5.70;99.90;;;;;;5097665;28;20047;-77
2022/03/09 04:03:35;;;;;;;16.45;10.80;;;5.70;99.90;;;;;;5090425;28;20072;-77
2022/03/09 04:06:02;;;;;;;15.57;10.38;;;5.60;99.90;;;;;;5099101;28;20036;-77
2022/03/09 04:08:28;;;;;;;16.70;10.32;;;5.60;99.90;;;;;;5099234;28;20027;-77
2022/03/09 04:10:54;;;;;;;16.77;11.15;;;5.50;99.90;;;;;;5099253;28;20026;-78
2022/03/09 04:13:20;;;;;;;16.90;11.45;;;5.50;99.90;;;;;;5098840;28;20555;-78
2022/03/09 04:15:45;;;;;;;16.42;11.75;;;5.50;99.90;;;;;;5099547;28;20435;-77
2022/03/09 04:18:11;;;;;;;15.82;11.48;;;5.50;99.90;;;;;;5099041;28;20385;-77
2022/03/09 04:20:37;;;;;;;17.52;11.70;;;5.50;99.90;;;;;;5098874;28;20031;-77
2022/03/09 04:23:08;;;;;;;15.48;11.85;;;5.50;99.90;;;;;;5099093;28;20016;-77
2022/03/09 04:25:35;;;;;;;16.13;11.48;;;5.50;99.90;;;;;;5098862;28;20062;-77
2022/03/09 04:28:02;;;;;;;19.95;12.57;;;5.60;99.90;;;;;;5099595;28;20024;-77
2022/03/09 04:30:29;;;;;;;16.38;11.85;;;5.60;99.90;;;;;;5098458;28;20032;-77
2022/03/09 04:32:55;;;;;;;18.98;12.65;;;5.70;99.90;;;;;;5098681;28;20388;-78
2022/03/09 04:35:21;;;;;;;18.45;12.35;;;5.70;99.90;;;;;;5099892;28;20035;-78
2022/03/09 04:37:47;;;;;;;18.00;12.45;;;5.70;99.90;;;;;;5098694;28;20054;-77
2022/03/09 04:40:13;;;;;;;16.38;12.10;;;5.80;99.90;;;;;;5098350;28;20035;-78
2022/03/09 04:42:39;;;;;;;17.67;12.55;;;5.80;99.90;;;;;;5098046;28;20039;-78
2022/03/09 04:45:06;;;;;;;17.83;12.80;;;5.80;99.90;;;;;;5097754;28;20020;-78
2022/03/09 04:47:32;;;;;;;22.50;14.18;;;5.80;99.90;;;;;;5098576;28;20504;-77
2022/03/09 04:49:57;;;;;;;23.58;13.15;;;5.80;99.90;;;;;;5097523;28;20024;-77
2022/03/09 04:52:23;;;;;;;17.95;13.65;;;5.80;99.90;;;;;;5098124;28;20054;-77
2022/03/09 04:54:49;;;;;;;23.05;14.60;;;5.80;99.90;;;;;;5097881;28;20112;-77
2022/03/09 04:57:16;;;;;;;26.98;15.40;;;5.80;99.90;;;;;;5097676;28;20046;-77
2022/03/09 04:59:41;;;;;;;27.90;16.92;;;5.80;99.90;;;;;;5097759;28;20036;-77
2022/03/09 05:02:07;;;;;;;37.22;20.00;;;5.80;99.90;;;;;;5099703;28;20468;-78
2022/03/09 05:04:33;;;;;;;32.13;18.67;;;5.80;99.90;;;;;;5097907;28;20054;-77
2022/03/09 05:06:59;;;;;;;32.80;19.30;;;5.90;99.90;;;;;;5097877;28;20047;-78
2022/03/09 05:09:25;;;;;;;31.08;18.60;;;5.90;99.90;;;;;;5097715;28;20031;-76
2022/03/09 05:11:51;;;;;;;33.75;18.45;;;5.90;99.90;;;;;;5098662;28;20020;-78
2022/03/09 05:14:16;;;;;;;32.42;20.25;;;5.80;99.90;;;;;;5098975;28;20488;-78
2022/03/09 05:16:42;;;;;;;35.88;21.35;;;5.80;99.90;;;;;;5098829;28;20032;-77
2022/03/09 05:19:08;;;;;;;31.35;19.83;;;5.80;99.90;;;;;;5098879;28;20028;-77
2022/03/09 05:21:34;;;;;;;44.22;21.63;;;5.80;99.90;;;;;;5098611;28;20077;-77
2022/03/09 05:24:00;;;;;;;37.20;20.65;;;5.90;99.90;;;;;;5097599;28;20024;-77
2022/03/09 05:26:26;;;;;;;35.85;22.30;;;6.00;99.90;;;;;;5096351;28;20028;-77
2022/03/09 05:28:53;;;;;;;40.20;20.80;;;6.00;99.90;;;;;;5095012;28;20021;-77
2022/03/09 05:31:19;;;;;;;42.80;21.55;;;6.00;99.90;;;;;;5097424;28;20145;-77
2022/03/09 05:33:45;;;;;;;37.20;19.92;;;5.90;99.90;;;;;;5098487;28;20047;-77
2022/03/09 05:36:11;;;;;;;35.33;20.83;;;5.90;99.90;;;;;;5097411;28;20488;-77
2022/03/09 05:38:37;;;;;;;30.77;19.30;;;5.90;99.90;;;;;;5098395;28;20036;-78
2022/03/09 05:41:02;;;;;;;30.77;20.85;;;5.80;99.90;;;;;;5098356;28;20047;-77
2022/03/09 05:43:28;;;;;;;36.55;19.92;;;5.80;99.90;;;;;;5098062;28;20038;-78
2022/03/09 05:45:54;;;;;;;32.03;19.00;;;5.80;99.90;;;;;;5098382;28;20504;-78
2022/03/09 05:48:20;;;;;;;35.03;19.63;;;6.00;99.90;;;;;;5096847;28;20043;-78
2022/03/09 05:50:46;;;;;;;33.83;19.98;;;6.10;99.90;;;;;;5098311;28;20028;-78
2022/03/09 05:53:12;;;;;;;30.92;20.33;;;6.10;99.90;;;;;;5097209;28;20426;-77
2022/03/09 05:55:37;;;;;;;33.50;19.48;;;6.20;99.90;;;;;;5096937;28;20058;-78
2022/03/09 05:58:04;;;;;;;35.65;19.15;;;6.30;99.90;;;;;;5096874;28;20571;-78
2022/03/09 06:00:30;;;;;;;30.17;19.13;;;6.40;99.90;;;;;;5098121;28;20028;-78
2022/03/09 06:02:56;;;;;;;28.52;19.08;;;6.40;99.90;;;;;;5098049;28;20373;-78
2022/03/09 06:05:22;;;;;;;29.98;18.60;;;6.50;99.90;;;;;;5098042;28;20107;-78
2022/03/09 06:07:48;;;;;;;26.73;18.95;;;6.60;99.90;;;;;;5096635;28;20024;-78
2022/03/09 06:10:14;;;;;;;23.23;17.10;;;6.60;99.90;;;;;;5097972;28;20024;-78
2022/03/09 06:12:40;;;;;;;26.85;17.55;;;6.60;99.90;;;;;;5097455;28;20032;-78
2022/03/09 06:15:07;;;;;;;21.48;16.85;;;6.70;99.90;;;;;;5098182;28;20016;-77
2022/03/09 06:17:41;;;;;;;23.08;17.30;;;6.70;99.90;;;;;;5096661;28;20032;-77
2022/03/09 06:20:08;;;;;;;23.77;16.50;;;6.80;99.90;;;;;;5097688;28;20028;-77
2022/03/09 06:22:33;;;;;;;20.13;15.68;;;6.80;99.90;;;;;;5096452;28;20028;-78
2022/03/09 06:24:59;;;;;;;21.42;16.95;;;6.80;99.90;;;;;;5098122;28;20105;-78
2022/03/09 06:27:25;;;;;;;22.13;16.70;;;6.70;99.90;;;;;;5095853;28;20024;-78
2022/03/09 06:29:51;;;;;;;18.58;15.30;;;6.70;99.90;;;;;;5096354;28;20017;-78
2022/03/09 06:32:17;;;;;;;20.80;15.40;;;6.70;99.90;;;;;;5097509;28;20024;-78
2022/03/09 06:34:42;;;;;;;20.15;15.38;;;6.60;99.90;;;;;;5096452;28;20021;-78
2022/03/09 06:37:08;;;;;;;19.83;15.55;;;6.60;99.90;;;;;;5097475;28;20456;-77
2022/03/09 06:39:34;;;;;;;21.85;15.88;;;6.50;99.90;;;;;;5097415;28;20032;-78
2022/03/09 06:42:00;;;;;;;21.02;16.30;;;6.50;99.90;;;;;;5097144;28;20061;-77
2022/03/09 06:44:26;;;;;;;20.67;16.10;;;6.50;99.90;;;;;;5097740;28;20024;-77
2022/03/09 06:46:51;;;;;;;24.67;15.65;;;6.50;99.90;;;;;;5095935;28;20024;-78
2022/03/09 06:49:17;;;;;;;28.55;16.27;;;6.50;99.90;;;;;;5097458;28;20020;-78
2022/03/09 06:51:43;;;;;;;21.20;15.90;;;6.50;99.90;;;;;;5095951;28;20035;-78
2022/03/09 06:54:09;;;;;;;27.95;17.02;;;6.50;99.90;;;;;;5096014;28;20047;-78
2022/03/09 06:56:35;;;;;;;24.88;16.38;;;6.60;99.90;;;;;;5097019;28;20024;-77
2022/03/09 06:59:01;;;;;;;25.35;16.13;;;6.50;99.90;;;;;;5095801;28;20016;-78
2022/03/09 07:01:27;;;;;;;23.90;15.95;;;6.60;99.90;;;;;;5095989;28;20039;-78
2022/03/09 07:03:52;;;;;;;23.20;16.73;;;6.70;99.90;;;;;;5096173;28;20629;-78
2022/03/09 07:06:18;;;;;;;26.63;17.02;;;6.70;99.90;;;;;;5097025;28;20028;-78
2022/03/09 07:08:44;;;;;;;26.52;18.67;;;6.70;99.90;;;;;;5097917;28;20400;-78
2022/03/09 07:11:10;;;;;;;29.70;19.65;;;6.70;99.90;;;;;;5091656;28;20024;-77
2022/03/09 07:13:36;;;;;;;27.77;18.55;;;6.90;99.90;;;;;;5101252;28;20024;-77
2022/03/09 07:16:01;;;;;;;26.35;17.25;;;7.00;99.90;;;;;;5101094;28;20025;-78
2022/03/09 07:18:27;;;;;;;23.42;17.00;;;7.10;99.90;;;;;;5099901;28;20118;-78
2022/03/09 07:20:53;;;;;;;21.50;15.57;;;7.20;99.90;;;;;;5099601;28;20027;-78
2022/03/09 07:23:19;;;;;;;21.48;16.48;;;7.30;99.90;;;;;;5101267;28;20020;-78
2022/03/09 07:25:45;;;;;;;18.35;14.93;;;7.30;99.90;;;;;;5101327;28;20479;-77
2022/03/09 07:28:11;;;;;;;18.08;13.85;;;7.40;99.90;;;;;;5099425;28;20023;-77
2022/03/09 07:30:37;;;;;;;20.30;15.20;;;7.50;99.90;;;;;;5099377;28;20024;-77
2022/03/09 07:33:03;;;;;;;21.75;15.15;;;7.60;99.90;;;;;;5099700;28;20028;-77
2022/03/09 07:35:29;;;;;;;19.33;14.90;;;7.60;99.90;;;;;;5099561;28;20076;-78
2022/03/09 07:37:55;;;;;;;22.00;15.75;;;7.70;99.90;;;;;;5100795;28;20031;-77
2022/03/09 07:40:21;;;;;;;22.15;15.15;;;7.70;99.90;;;;;;5094446;28;20025;-77
2022/03/09 07:42:48;;;;;;;18.83;13.82;;;7.80;99.90;;;;;;5092133;28;20066;-77
2022/03/09 07:45:14;;;;;;;20.83;13.63;;;7.80;99.90;;;;;;5100697;28;20033;-77
2022/03/09 07:47:39;;;;;;;18.88;14.32;;;7.80;99.90;;;;;;5099408;28;20076;-77
2022/03/09 07:50:08;;;;;;;27.15;15.57;;;7.90;99.90;;;;;;5100519;28;20569;-77
2022/03/09 07:52:35;;;;;;;20.23;14.95;;;8.00;99.90;;;;;;5100635;28;20032;-77
2022/03/09 07:55:01;;;;;;;22.17;15.43;;;8.10;99.90;;;;;;5100464;28;20027;-76
2022/03/09 07:57:27;;;;;;;17.58;14.32;;;8.20;99.90;;;;;;5098882;28;20466;-77
2022/03/09 07:59:52;;;;;;;20.35;14.77;;;8.20;99.90;;;;;;5100298;28;20454;-77
2022/03/09 08:02:18;;;;;;;16.73;13.77;;;8.30;99.90;;;;;;5099135;28;20016;-77
2022/03/09 08:04:44;;;;;;;18.52;15.02;;;8.30;99.90;;;;;;5100313;28;20059;-77
2022/03/09 08:07:10;;;;;;;18.95;14.02;;;8.40;99.90;;;;;;5100267;28;20099;-77
2022/03/09 08:09:36;;;;;;;21.20;14.68;;;8.40;99.90;;;;;;5099119;28;20032;-77
2022/03/09 08:12:02;;;;;;;18.75;14.38;;;8.50;99.90;;;;;;5100051;28;20091;-77
2022/03/09 08:14:28;;;;;;;21.42;13.80;;;8.60;99.90;;;;;;5087669;28;20055;-77
2022/03/09 08:16:54;;;;;;;19.17;13.85;;;8.70;99.90;;;;;;5098107;28;20020;-76
2022/03/09 08:19:20;;;;;;;20.73;12.98;;;8.80;99.90;;;;;;5098955;28;20561;-77
2022/03/09 08:21:46;;;;;;;20.38;14.73;;;8.90;99.90;;;;;;5096629;28;20038;-77
2022/03/09 08:24:11;;;;;;;19.75;14.43;;;9.00;99.90;;;;;;5099952;28;20079;-77
2022/03/09 08:26:37;;;;;;;24.20;12.55;;;9.10;99.90;;;;;;5099823;28;20041;-77
2022/03/09 08:29:03;;;;;;;18.65;13.10;;;9.10;99.90;;;;;;5093954;28;20027;-77
2022/03/09 08:31:29;;;;;;;16.75;12.45;;;9.20;99.90;;;;;;5092213;28;20032;-77
2022/03/09 08:33:55;;;;;;;16.65;12.52;;;9.20;99.90;;;;;;5099809;28;20058;-77
2022/03/09 08:36:22;;;;;;;18.38;11.77;;;9.20;99.90;;;;;;5098059;28;20024;-77
2022/03/09 08:38:48;;;;;;;16.00;12.30;;;9.30;99.90;;;;;;5098269;28;20051;-77
2022/03/09 08:41:14;;;;;;;14.38;11.55;;;9.30;99.90;;;;;;5091418;28;20118;-77
2022/03/09 08:43:40;;;;;;;16.10;12.05;;;9.40;99.90;;;;;;5098194;28;20052;-77
2022/03/09 08:46:06;;;;;;;17.30;10.93;;;9.40;99.90;;;;;;5098561;28;20020;-77
2022/03/09 08:48:32;;;;;;;18.98;11.43;;;9.40;99.90;;;;;;5099685;28;20020;-77
2022/03/09 08:50:57;;;;;;;21.13;12.65;;;9.40;99.90;;;;;;5098402;28;20028;-77
2022/03/09 08:53:23;;;;;;;19.45;11.93;;;9.50;99.90;;;;;;5098119;28;20020;-77
2022/03/09 08:55:49;;;;;;;20.20;12.23;;;9.50;99.90;;;;;;5097435;28;20031;-77
2022/03/09 08:58:15;;;;;;;17.20;11.65;;;9.60;99.90;;;;;;5097634;28;20047;-77
2022/03/09 09:00:41;;;;;;;19.13;14.60;;;9.60;99.90;;;;;;5099541;28;20024;-77
2022/03/09 09:03:07;;;;;;;18.63;12.95;;;9.60;99.90;;;;;;5099360;28;20066;-77
2022/03/09 09:05:33;;;;;;;17.85;12.73;;;9.60;99.90;;;;;;5097851;28;20024;-77
2022/03/09 09:07:59;;;;;;;17.80;12.85;;;9.70;99.90;;;;;;5097452;28;20459;-77
2022/03/09 09:10:25;;;;;;;17.33;13.60;;;9.60;99.90;;;;;;5099139;28;20024;-78
2022/03/09 09:12:51;;;;;;;19.70;13.65;;;9.70;99.90;;;;;;5098551;28;20028;-78
2022/03/09 09:15:17;;;;;;;19.13;14.00;;;9.70;99.90;;;;;;5097638;28;20551;-77
2022/03/09 09:17:43;;;;;;;18.15;13.70;;;9.70;99.90;;;;;;5097525;28;20135;-77
2022/03/09 09:20:09;;;;;;;26.02;15.13;;;9.70;99.90;;;;;;5097807;28;20028;-76
2022/03/09 09:22:35;;;;;;;51.03;35.35;;;9.70;99.90;;;;;;5098695;28;20109;-76
2022/03/09 09:25:02;;;;;;;33.88;22.58;;;9.70;99.90;;;;;;5099218;28;20024;-75
2022/03/09 09:27:28;;;;;;;23.67;16.20;;;9.70;99.90;;;;;;5097392;28;20031;-77
2022/03/09 09:29:54;;;;;;;23.17;16.30;;;9.60;99.90;;;;;;5098736;28;20024;-77
2022/03/09 09:32:20;;;;;;;43.13;29.42;;;9.70;99.90;;;;;;5092728;28;20020;-77
2022/03/09 09:34:46;;;;;;;31.25;22.23;;;9.70;99.90;;;;;;5097392;28;20457;-76
2022/03/09 09:37:11;;;;;;;35.78;20.52;;;9.70;99.90;;;;;;5097305;28;20021;-76
2022/03/09 09:39:38;;;;;;;111.43;54.58;;;9.60;99.90;;;;;;5098677;28;20511;-77
2022/03/09 09:42:05;;;;;;;38.75;21.40;;;9.70;99.90;;;;;;5098044;28;20054;-77
2022/03/09 09:44:31;;;;;;;28.80;18.58;;;9.60;99.90;;;;;;5096903;28;20031;-77
2022/03/09 09:46:57;;;;;;;33.60;23.52;;;9.60;99.90;;;;;;5081420;28;20020;-77
2022/03/09 09:49:26;;;;;;;28.25;17.88;;;9.70;99.90;;;;;;5092977;28;20024;-77
2022/03/09 09:51:53;;;;;;;58.97;35.22;;;9.70;99.90;;;;;;5090933;28;20024;-79
2022/03/09 09:54:21;;;;;;;43.60;26.90;;;9.60;99.90;;;;;;5096425;28;20500;-77
2022/03/09 09:56:47;;;;;;;24.23;17.55;;;9.60;99.90;;;;;;5097337;28;20032;-77
2022/03/09 09:59:14;;;;;;;28.00;19.38;;;9.60;99.90;;;;;;5096515;28;20028;-77
2022/03/09 10:01:41;;;;;;;26.85;18.63;;;9.60;99.90;;;;;;5087819;28;20032;-79
2022/03/09 10:04:07;;;;;;;26.17;18.88;;;9.60;99.90;;;;;;5095818;28;20073;-80
2022/03/09 10:06:34;;;;;;;23.13;17.35;;;9.70;99.90;;;;;;5083659;28;20069;-78
2022/03/09 10:09:07;;;;;;;23.42;16.10;;;9.80;99.90;;;;;;5092675;28;20024;-78
2022/03/09 10:11:56;;;;;;;28.25;18.83;;;9.90;99.90;;;;;;5095664;28;20036;-74
2022/03/09 10:14:50;;;;;;;32.08;19.05;;;10.00;99.90;;;;;;5097648;28;20040;-76
2022/03/09 10:17:32;;;;;;;28.15;17.85;;;10.10;99.90;;;;;;5077634;28;20067;-74
2022/03/09 10:20:09;;;;;;;23.08;16.60;;;10.20;99.90;;;;;;5088964;28;20027;-75
2022/03/09 10:22:37;;;;;;;25.35;15.98;;;10.20;99.90;;;;;;5096177;28;20035;-74
2022/03/09 10:25:09;;;;;;;22.45;15.52;;;10.40;99.90;;;;;;5096400;28;20058;-74
2022/03/09 10:27:42;;;;;;;23.70;15.68;;;10.60;99.90;;;;;;5096528;28;20028;-74
2022/03/09 10:30:17;;;;;;;21.58;15.07;;;10.70;99.90;;;;;;5096161;28;20024;-73
2022/03/09 10:32:45;;;;;;;96.70;61.85;;;10.80;99.90;;;;;;5097902;28;20077;-74
2022/03/09 10:35:17;;;;;;;21.50;15.65;;;10.90;99.90;;;;;;5096695;28;20074;-74
2022/03/09 10:37:46;;;;;;;20.05;15.10;;;11.00;99.90;;;;;;5096244;28;20035;-74
2022/03/09 10:40:13;;;;;;;21.20;14.15;;;11.10;99.90;;;;;;5095836;28;20127;-74
2022/03/09 10:42:40;;;;;;;19.48;14.63;;;11.20;99.90;;;;;;5096498;28;20077;-74
2022/03/09 10:45:07;;;;;;;21.33;15.52;;;11.30;99.90;;;;;;5092127;28;20028;-74
2022/03/09 10:47:36;;;;;;;23.27;14.98;;;11.40;99.90;;;;;;5090451;28;20027;-74
2022/03/09 10:50:17;;;;;;;20.48;13.98;;;11.60;99.90;;;;;;5094990;28;20518;-74
2022/03/09 10:52:44;;;;;;;;;;;11.70;99.90;;;;;;5096447;28;20479;-74
2022/03/09 10:55:31;;;;;;;16.95;12.35;;;11.80;99.90;;;;;;5095255;28;19911;-74
2022/03/09 10:58:18;;;;;;;24.40;13.70;;;11.70;99.90;;;;;;5096924;28;20527;-74
2022/03/09 11:00:52;;;;;;;21.52;14.45;;;11.60;99.90;;;;;;5096090;28;20032;-74
2022/03/09 11:03:24;;;;;;;20.90;14.38;;;11.50;99.90;;;;;;5095829;28;20020;-74
2022/03/09 11:06:02;;;;;;;20.10;13.80;;;11.40;99.90;;;;;;5095837;28;20028;-74
2022/03/09 11:08:30;;;;;;;22.23;15.05;;;11.40;99.90;;;;;;5095953;28;20028;-74
2022/03/09 11:10:58;;;;;;;52.65;32.53;;;11.50;99.90;;;;;;5095733;28;20075;-73
2022/03/09 11:13:25;;;;;;;75.25;40.15;;;11.50;99.90;;;;;;5097076;28;20016;-73
2022/03/09 11:15:53;;;;;;;24.60;16.00;;;11.70;99.90;;;;;;5097317;28;20031;-73
2022/03/09 11:18:21;;;;;;;17.95;13.40;;;11.90;99.90;;;;;;5095908;28;20445;-72
2022/03/09 11:20:49;;;;;;;32.10;20.23;;;12.00;99.90;;;;;;5095948;28;20380;-72
2022/03/09 11:23:16;;;;;;;18.92;13.15;;;12.00;99.90;;;;;;5095884;28;20024;-74
2022/03/09 11:25:53;;;;;;;29.35;19.20;;;12.20;99.90;;;;;;5095903;28;20028;-73
2022/03/09 11:28:29;;;;;;;19.40;11.70;;;12.40;99.90;;;;;;5097042;28;20020;-73
2022/03/09 11:31:01;;;;;;;16.48;11.50;;;12.50;99.90;;;;;;5084243;28;20078;-73
2022/03/09 11:33:41;;;;;;;12.40;9.95;;;12.80;99.90;;;;;;5097037;28;20100;-73
2022/03/09 11:36:33;;;;;;;16.38;11.55;;;12.90;99.90;;;;;;5097190;28;20487;-75
2022/03/09 11:39:05;;;;;;;16.38;11.25;;;13.10;99.90;;;;;;5082572;28;20052;-73
2022/03/09 11:41:36;;;;;;;66.88;39.28;;;13.10;99.90;;;;;;5096384;28;20499;-73
2022/03/09 11:44:34;;;;;;;14.63;10.60;;;13.30;99.90;;;;;;5097224;28;20407;-74
2022/03/09 11:47:01;;;;;;;36.50;17.95;;;13.30;99.90;;;;;;5038850;28;20035;-74
2022/03/09 11:49:45;;;;;;;20.98;10.75;;;13.20;99.90;;;;;;5095486;28;20031;-74
2022/03/09 11:52:23;;;;;;;43.63;22.80;;;13.00;99.90;;;;;;5095536;28;20046;-74
2022/03/09 11:54:59;;;;;;;15.85;9.93;;;12.80;99.90;;;;;;5098678;28;20056;-74
2022/03/09 11:57:48;;;;;;;101.45;43.58;;;12.60;99.90;;;;;;5098715;28;20027;-75
2022/03/09 12:00:21;;;;;;;89.97;39.50;;;12.40;99.90;;;;;;5089534;28;20035;-75
2022/03/09 12:02:56;;;;;;;157.43;58.58;;;12.30;99.90;;;;;;5099124;28;20020;-75
2022/03/09 12:05:28;;;;;;;63.63;25.88;;;12.30;99.90;;;;;;5099160;28;20038;-74
2022/03/09 12:07:59;;;;;;;97.63;43.33;;;12.30;99.90;;;;;;5098971;28;20020;-74
2022/03/09 12:10:41;;;;;;;20.90;12.38;;;12.30;99.90;;;;;;5098981;28;20032;-74
2022/03/09 12:13:12;;;;;;;34.72;18.10;;;12.40;99.90;;;;;;5098709;28;20028;-75
2022/03/09 12:16:01;;;;;;;130.63;56.90;;;12.50;99.90;;;;;;5100213;28;20024;-75
2022/03/09 12:18:37;;;;;;;14.90;9.45;;;12.50;99.90;;;;;;5100242;28;20129;-74
2022/03/09 12:21:04;;;;;;;12.07;8.68;;;12.50;99.90;;;;;;5100303;28;20028;-74
2022/03/09 12:23:31;;;;;;;18.60;12.23;;;12.50;99.90;;;;;;5100204;28;20017;-74
2022/03/09 12:25:58;;;;;;;30.67;18.33;;;12.70;99.90;;;;;;5099093;28;20038;-75
2022/03/09 12:30:57;;;;;;;12.55;7.75;;;13.20;99.90;;;;;;5086907;28;20031;-75
2022/03/09 12:33:27;;;;;;;14.48;9.80;;;13.30;99.90;;;;;;5097662;28;20051;-74
2022/03/09 12:36:03;;;;;;;11.20;8.80;;;13.50;99.90;;;;;;5098748;28;20085;-74
2022/03/09 12:38:42;;;;;;;10.10;8.30;;;13.70;99.90;;;;;;5099593;28;20514;-75
2022/03/09 12:41:26;;;;;;;34.95;18.38;;;14.00;99.90;;;;;;5099550;28;20115;-74
2022/03/09 12:43:56;;;;;;;17.58;11.63;;;14.10;99.90;;;;;;5098548;28;20028;-74